This is the latest recevied weather packets stored in our database for station/object HS1AL-1. If no packets are shown the sender has not sent any weather packets the latest 10 day(s).
| Time | Temp. | Humidity | Pressure | Rain* | Wind** | Luminosity | Snow |
|---|---|---|---|---|---|---|---|
| 1777565299 | 35° C | 51% | 1011 hPa | - | - | 0 W/m² | - |
| 1777564368 | 35° C | 51% | 1012 hPa | - | - | 0 W/m² | - |
| 1777563439 | 35.56° C | 46% | 1011 hPa | - | - | 0 W/m² | - |
| 1777562510 | 36.11° C | 46% | 1009 hPa | - | - | 0 W/m² | - |
| 1777561583 | 36.11° C | 46% | 1009 hPa | - | - | 0 W/m² | - |
| 1777560655 | 36.67° C | 46% | 1009 hPa | - | - | 0 W/m² | - |
| 1777559725 | 36.11° C | 47% | 1009 hPa | - | - | 0 W/m² | - |
| 1777558797 | 36.11° C | 48% | 1009 hPa | - | - | 0 W/m² | - |
| 1777557868 | 36.67° C | 47% | 1009 hPa | - | - | 0 W/m² | - |
| 1777556937 | 36.67° C | 47% | 1008 hPa | - | - | 0 W/m² | - |
| 1777556010 | 36.67° C | 47% | 1007 hPa | - | - | 0 W/m² | - |
| 1777555085 | 36.67° C | 46% | 1007 hPa | - | - | 0 W/m² | - |
| 1777554153 | 36.11° C | 46% | 1006 hPa | - | - | 0 W/m² | - |
| 1777553226 | 36.11° C | 48% | 1006 hPa | - | - | 0 W/m² | - |
| 1777552297 | 36.67° C | 47% | 1006 hPa | - | - | 0 W/m² | - |
| 1777551369 | 36.67° C | 47% | 1006 hPa | - | - | 0 W/m² | - |
| 1777550442 | 36.67° C | 47% | 1006 hPa | - | - | 0 W/m² | - |
| 1777549512 | 38.89° C | 40% | 1006 hPa | - | - | 0 W/m² | - |
| 1777548584 | 39.44° C | 36% | 1006 hPa | - | - | 0 W/m² | - |
| 1777547655 | 40.56° C | 31% | 1006 hPa | - | - | 0 W/m² | - |
| 1777546724 | 41.11° C | 31% | 1005 hPa | - | - | 0 W/m² | - |
| 1777545793 | 41.11° C | 31% | 1004 hPa | - | - | 0 W/m² | - |
| 1777544864 | 41.11° C | 31% | 1004 hPa | - | - | 0 W/m² | - |
| 1777543928 | 41.11° C | 31% | 1004 hPa | - | - | 0 W/m² | - |
| 1777542995 | 41.11° C | 31% | 1004 hPa | - | - | 0 W/m² | - |
* Rain since midnight (hover to see other rain measurements)
** Current wind speed in m/s (hover to see current wind gust speed)